Terminal Aerodrome Forecast
Issued by NWS Duluth, MN

Home | Current Version | Previous Version | Text Only | Print | Product List | Glossary On
Versions: 1 2 3 4 5 6 7 8 9 10 11 12 13 14 15 16 17 18 19 20 21 22 23 24
608
FTUS43 KDLH 251146
TAFDLH
TAF
KDLH 251146Z 2512/2612 32007KT P6SM VCSH BKN007 OVC050
     FM251300 30008KT 6SM -SHRA OVC007
     FM251700 31010G17KT 6SM -SHRA OVC012
     FM260100 32006KT P6SM BKN080=

USA.gov is the U.S. government's official web portal to all federal, state and local government web resources and services.